Date,TemperatureHighF,TemperatureAvgF,TemperatureLowF,DewpointHighF,DewpointAvgF,DewpointLowF,HumidityHigh,HumidityAvg,HumidityLow,PressureMaxIn,PressureMinIn,WindSpeedMaxMPH,WindSpeedAvgMPH,GustSpeedMaxMPH,PrecipitationSumIn
2013-2-1,70,58,47,44,39,35,77,53,32,30.32,30.21,13,4,21,0.00
2013-2-2,75,61,50,58,47,36,86,63,34,30.27,30.12,8,4,14,0.00
2013-2-3,72,61,52,57,48,34,88,67,26,30.21,30.09,10,4,17,0.00
2013-2-4,70,60,51,54,47,27,95,67,20,30.15,30.03,7,2,12,0.00
2013-2-5,77,65,54,62,56,47,93,73,52,30.08,29.99,5,1,12,0.00
2013-2-6,79,68,59,66,62,57,94,81,61,30.10,30.01,5,1,9,0.00
2013-2-7,79,71,64,67,66,62,95,84,65,30.06,29.93,6,2,18,0.01
2013-2-8,75,70,62,69,66,60,96,86,64,30.06,29.90,10,6,18,0.02
2013-2-9,78,67,58,65,60,56,97,79,52,30.15,30.04,8,4,17,0.00
2013-2-10,81,72,66,66,63,60,84,75,56,30.22,30.12,9,4,16,0.00
2013-2-11,80,72,67,69,66,64,92,82,67,30.19,30.08,8,4,17,0.00
2013-2-12,81,73,68,72,69,66,96,88,74,30.10,29.96,7,2,20,0.01
2013-2-13,81,74,68,74,71,63,98,92,78,29.99,29.90,9,3,17,0.01
2013-2-14,73,64,61,70,61,58,97,91,76,30.02,29.90,12,4,21,1.77
2013-2-15,68,64,61,63,61,58,96,90,81,30.05,29.94,6,2,10,0.08
2013-2-16,69,62,58,60,53,44,93,74,56,30.10,29.92,17,8,30,0.01
2013-2-17,60,52,44,44,32,22,60,47,34,30.32,30.10,16,6,28,0.00
2013-2-18,71,57,44,52,42,30,74,58,44,30.32,30.20,9,4,16,0.00
2013-2-19,78,66,56,65,59,51,95,80,61,30.20,30.09,6,2,12,0.00
2013-2-20,80,68,59,66,62,58,98,83,51,30.10,29.99,8,2,12,0.00
2013-2-21,81,71,63,69,65,61,97,83,58,30.08,29.99,6,2,12,0.00
2013-2-22,82,73,67,72,68,65,96,87,67,30.07,29.99,7,3,16,0.00
2013-2-23,81,74,69,74,71,68,97,90,76,30.02,29.91,7,3,16,0.01
2013-2-24,83,74,69,74,71,68,99,91,72,29.98,29.89,9,1,14,0.01
2013-2-25,82,75,69,75,71,68,98,90,78,29.91,29.79,5,2,13,0.00
2013-2-26,81,74,70,74,71,66,95,90,79,29.89,29.74,8,4,20,0.06
2013-2-27,74,69,66,68,63,61,92,81,68,29.98,29.86,8,4,14,0.00
2013-2-28,71,66,61,61,58,56,88,77,60,30.02,29.93,10,3,17,0.00